Time;durP1;ratioP1;P1;durP2;ratioP2;P2;SDS_P1;SDS_P2;PMS_P1;PMS_P2;Temp;Humidity;BMP_temperature;BMP_pressure;BME280_temperature;BME280_humidity;BME280_pressure;Samples;Min_cycle;Max_cycle;Signal;HPM_P1;HPM_P2
2021/09/17 00:00:32;;;;;;;11.50;9.02;;;;;;;23.23;42.73;99607.47;5074614;28;20035;-82
2021/09/17 00:02:58;;;;;;;12.13;8.60;;;;;;;22.95;42.80;99564.69;5074488;28;20027;-83
2021/09/17 00:05:24;;;;;;;11.13;9.20;;;;;;;22.82;42.91;99558.69;5074192;28;20027;-83
2021/09/17 00:07:50;;;;;;;10.98;8.95;;;;;;;23.20;42.83;99613.38;5074302;28;20460;-81
2021/09/17 00:10:17;;;;;;;14.77;9.07;;;;;;;22.65;42.76;99523.00;5074281;28;20103;-83
2021/09/17 00:12:43;;;;;;;11.25;9.05;;;;;;;22.99;42.90;99563.94;5074204;28;20501;-83
2021/09/17 00:15:10;;;;;;;10.68;9.40;;;;;;;23.11;43.08;99590.69;5074281;28;20016;-82
2021/09/17 00:17:36;;;;;;;10.20;9.00;;;;;;;23.03;43.16;99580.38;5074090;28;20032;-83
2021/09/17 00:20:04;;;;;;;12.07;9.65;;;;;;;22.31;43.30;99471.34;5074144;28;20058;-83
2021/09/17 00:22:29;;;;;;;10.18;9.00;;;;;;;22.96;43.29;99587.88;5072812;28;20024;-83
2021/09/17 00:24:54;;;;;;;10.75;9.65;;;;;;;23.01;43.62;99585.22;5074367;28;20467;-82
2021/09/17 00:27:20;;;;;;;12.30;9.00;;;;;;;22.99;43.67;99581.97;5074369;28;20035;-83
2021/09/17 00:29:45;;;;;;;10.02;9.00;;;;;;;22.83;43.72;99560.31;5074049;28;20024;-84
2021/09/17 00:32:11;;;;;;;13.07;9.27;;;;;;;22.77;43.89;99552.41;5074135;28;20012;-82
2021/09/17 00:34:36;;;;;;;10.02;8.85;;;;;;;22.59;44.13;99525.91;5074120;28;20494;-82
2021/09/17 00:37:02;;;;;;;13.30;8.75;;;;;;;22.57;44.18;99522.66;5074013;28;20024;-81
2021/09/17 00:39:27;;;;;;;12.98;9.43;;;;;;;22.85;44.28;99572.69;5073647;28;20025;-81
2021/09/17 00:41:52;;;;;;;12.88;8.57;;;;;;;22.42;44.54;99513.41;5073765;28;20020;-81
2021/09/17 00:44:26;;;;;;;13.88;9.15;;;;;;;22.40;44.62;99501.25;5072548;28;20073;-83
2021/09/17 00:46:52;;;;;;;11.68;8.95;;;;;;;22.79;44.35;99563.75;5072406;28;20017;-81
2021/09/17 00:49:19;;;;;;;12.10;8.80;;;;;;;22.37;44.60;99499.91;5072443;28;20021;-83
2021/09/17 00:51:46;;;;;;;13.88;8.82;;;;;;;22.54;44.68;99533.94;5073826;28;20016;-83
2021/09/17 00:54:12;;;;;;;9.95;8.98;;;;;;;21.99;44.08;99468.56;5073822;28;20025;-82
2021/09/17 00:56:37;;;;;;;11.55;8.80;;;;;;;22.58;43.54;99549.31;5072368;28;20420;-83
2021/09/17 00:59:03;;;;;;;9.90;8.82;;;;;;;22.25;43.09;99509.97;5073607;28;20027;-83
2021/09/17 01:01:28;;;;;;;11.85;8.50;;;;;;;22.41;42.87;99560.19;5073533;28;20017;-83
2021/09/17 01:03:54;;;;;;;10.02;9.00;;;;;;;22.07;42.82;99535.34;5072966;28;20020;-83
2021/09/17 01:06:19;;;;;;;21.25;9.63;;;;;;;21.62;43.13;99538.31;5073127;28;20013;-83
2021/09/17 01:08:45;;;;;;;8.80;7.93;;;;;;;21.63;43.72;99576.75;5073349;28;20046;-82
2021/09/17 01:11:11;;;;;;;9.35;8.50;;;;;;;21.48;43.64;99555.84;5073311;28;20021;-83
2021/09/17 01:13:37;;;;;;;12.52;8.95;;;;;;;21.55;43.72;99575.28;5073349;28;20016;-81
2021/09/17 01:16:03;;;;;;;10.27;8.98;;;;;;;21.28;43.83;99537.56;5073200;28;20023;-83
2021/09/17 01:18:29;;;;;;;11.40;8.75;;;;;;;21.44;43.90;99568.94;5072990;28;20021;-82
2021/09/17 01:21:00;;;;;;;11.77;8.75;;;;;;;21.44;43.67;99571.63;5072972;28;20027;-83
2021/09/17 01:23:25;;;;;;;11.10;8.57;;;;;;;21.41;43.66;99553.34;5071778;28;20077;-83
2021/09/17 01:25:51;;;;;;;9.52;8.63;;;;;;;20.89;43.92;99483.03;5071826;28;20028;-83
2021/09/17 01:28:30;;;;;;;10.05;8.45;;;;;;;20.92;44.10;99486.03;5072880;28;20027;-83
2021/09/17 01:30:56;;;;;;;11.35;8.63;;;;;;;21.29;43.89;99551.81;5071891;28;20458;-83
2021/09/17 01:33:22;;;;;;;10.82;8.80;;;;;;;21.36;44.00;99555.94;5072877;28;20028;-83
2021/09/17 01:36:03;;;;;;;10.15;9.25;;;;;;;21.35;44.38;99548.13;5072875;28;20025;-81
2021/09/17 01:38:30;;;;;;;9.85;8.95;;;;;;;21.32;44.37;99538.72;5071576;28;20460;-83
2021/09/17 01:40:56;;;;;;;10.85;9.55;;;;;;;21.36;44.38;99534.47;5072748;28;20098;-83
2021/09/17 01:43:22;;;;;;;11.95;9.05;;;;;;;21.07;44.31;99481.94;5071276;28;20033;-81
2021/09/17 01:45:48;;;;;;;11.38;8.85;;;;;;;21.28;44.40;99510.72;5072571;28;20069;-83
2021/09/17 01:48:14;;;;;;;11.82;8.93;;;;;;;21.13;44.38;99502.44;5072480;28;20413;-82
2021/09/17 01:50:40;;;;;;;9.70;8.80;;;;;;;21.24;43.95;99505.03;5072381;28;20020;-83
2021/09/17 01:53:05;;;;;;;10.20;8.88;;;;;;;20.83;44.04;99443.78;5072393;28;20020;-83
2021/09/17 01:55:31;;;;;;;12.20;9.48;;;;;;;21.25;44.11;99522.78;5072392;28;20489;-83
2021/09/17 01:57:56;;;;;;;10.80;9.05;;;;;;;21.36;44.42;99539.03;5071042;28;20036;-83
2021/09/17 02:00:22;;;;;;;11.50;9.20;;;;;;;20.76;44.30;99448.47;5072356;28;20052;-84
2021/09/17 02:02:47;;;;;;;10.63;9.40;;;;;;;20.92;44.21;99491.41;5072158;28;20099;-81
2021/09/17 02:05:13;;;;;;;11.68;9.57;;;;;;;20.75;44.56;99463.75;5072187;28;20500;-81
2021/09/17 02:07:40;;;;;;;13.00;10.10;;;;;;;21.30;44.35;99531.97;5072266;28;20061;-82
2021/09/17 02:10:07;;;;;;;11.25;9.85;;;;;;;20.56;44.44;99411.44;5071947;28;20024;-81
2021/09/17 02:12:33;;;;;;;11.57;10.48;;;;;;;20.89;44.55;99481.16;5071945;28;20016;-83
2021/09/17 02:14:58;;;;;;;12.70;9.57;;;;;;;21.17;44.48;99506.25;5070026;28;20016;-82
2021/09/17 02:17:24;;;;;;;14.10;9.43;;;;;;;21.28;44.69;99516.09;5071592;28;20081;-83
2021/09/17 02:19:50;;;;;;;11.50;10.30;;;;;;;21.33;44.44;99508.09;5070413;28;20025;-81
2021/09/17 02:22:15;;;;;;;10.60;8.75;;;;;;;21.38;44.27;99513.53;5071822;28;20039;-81
2021/09/17 02:24:41;;;;;;;13.15;9.55;;;;;;;21.40;44.19;99529.41;5070628;28;20021;-75
2021/09/17 02:27:06;;;;;;;12.60;9.90;;;;;;;21.32;43.96;99514.53;5072004;28;20095;-77
2021/09/17 02:29:32;;;;;;;11.30;9.20;;;;;;;20.76;43.83;99414.41;5070478;28;20052;-76
2021/09/17 02:31:57;;;;;;;11.73;9.40;;;;;;;21.40;43.78;99522.16;5070558;28;20074;-74
2021/09/17 02:34:23;;;;;;;10.27;9.15;;;;;;;21.24;43.78;99525.72;5071707;28;20024;-77
2021/09/17 02:36:48;;;;;;;10.30;8.57;;;;;;;21.14;43.71;99520.16;5071793;28;20024;-77
2021/09/17 02:39:15;;;;;;;9.27;8.13;;;;;;;21.21;43.66;99524.31;5071675;28;20532;-77
2021/09/17 02:41:41;;;;;;;8.70;7.90;;;;;;;21.09;43.64;99520.91;5071417;28;20043;-77
2021/09/17 02:44:06;;;;;;;8.77;7.70;;;;;;;20.43;43.60;99428.69;5071723;28;20485;-76
2021/09/17 02:46:32;;;;;;;11.15;9.10;;;;;;;20.97;43.39;99525.56;5071730;28;20029;-77
2021/09/17 02:48:57;;;;;;;8.52;7.72;;;;;;;20.86;43.56;99508.50;5071682;28;20020;-76
2021/09/17 02:51:23;;;;;;;9.93;7.90;;;;;;;20.51;43.65;99465.81;5070220;28;20103;-76
2021/09/17 02:53:48;;;;;;;9.45;8.45;;;;;;;20.77;43.69;99511.81;5071466;28;20412;-77
2021/09/17 02:56:13;;;;;;;12.45;8.40;;;;;;;20.41;43.68;99457.63;5069964;28;20515;-76
2021/09/17 02:58:39;;;;;;;9.68;8.00;;;;;;;20.77;43.76;99514.50;5071407;28;20021;-76
2021/09/17 03:01:04;;;;;;;9.93;8.93;;;;;;;20.76;43.62;99520.91;5071285;28;20451;-76
2021/09/17 03:03:30;;;;;;;13.65;8.20;;;;;;;20.44;43.67;99454.44;5071039;28;20024;-78
2021/09/17 03:05:55;;;;;;;10.60;7.53;;;;;;;20.47;43.70;99451.28;5071277;28;20561;-76
2021/09/17 03:08:21;;;;;;;8.70;7.53;;;;;;;20.88;43.44;99519.81;5071316;28;20046;-76
2021/09/17 03:10:46;;;;;;;8.57;7.60;;;;;;;20.59;43.52;99464.59;5071117;28;20017;-77
2021/09/17 03:13:12;;;;;;;10.68;8.32;;;;;;;20.47;43.32;99453.13;5071109;28;20520;-76
2021/09/17 03:15:37;;;;;;;10.13;8.40;;;;;;;20.55;43.20;99458.09;5071223;28;20501;-77
2021/09/17 03:18:03;;;;;;;10.30;7.97;;;;;;;20.52;43.29;99453.22;5071128;28;20050;-77
2021/09/17 03:20:28;;;;;;;9.98;7.75;;;;;;;20.39;43.22;99438.28;5071182;28;20100;-77
2021/09/17 03:22:54;;;;;;;10.10;8.43;;;;;;;20.87;43.20;99514.69;5071361;28;20640;-77
2021/09/17 03:25:20;;;;;;;8.32;7.53;;;;;;;20.61;43.44;99508.09;5071137;28;20024;-82
2021/09/17 03:27:45;;;;;;;12.57;8.48;;;;;;;20.53;43.38;99482.47;5073582;28;20441;-81
2021/09/17 03:30:11;;;;;;;9.50;7.78;;;;;;;20.48;43.26;99454.75;5074037;28;20023;-82
2021/09/17 03:32:37;;;;;;;11.45;9.02;;;;;;;20.36;43.47;99443.28;5075347;28;20020;-83
2021/09/17 03:35:02;;;;;;;9.43;8.43;;;;;;;20.66;43.62;99510.03;5075342;28;20055;-83
2021/09/17 03:37:28;;;;;;;9.27;8.38;;;;;;;20.05;43.94;99469.56;5075115;28;20024;-83
2021/09/17 03:39:53;;;;;;;12.23;8.55;;;;;;;20.04;43.95;99485.88;5073470;28;20031;-83
2021/09/17 03:42:19;;;;;;;12.50;9.25;;;;;;;20.17;43.97;99507.84;5074918;28;20164;-83
2021/09/17 03:44:44;;;;;;;11.65;8.63;;;;;;;19.86;44.20;99455.56;5074919;28;20028;-83
2021/09/17 03:47:10;;;;;;;9.55;8.52;;;;;;;20.00;44.19;99477.50;5073681;28;20024;-83
2021/09/17 03:49:35;;;;;;;11.85;8.70;;;;;;;19.99;43.95;99478.56;5074921;28;20016;-83
2021/09/17 03:52:00;;;;;;;9.88;8.98;;;;;;;20.17;44.18;99502.50;5073315;28;20020;-83
2021/09/17 03:54:27;;;;;;;11.98;9.13;;;;;;;19.99;44.14;99471.31;5074524;28;20501;-83
2021/09/17 03:56:56;;;;;;;10.63;9.63;;;;;;;20.23;44.07;99522.16;5074522;28;20505;-83
2021/09/17 03:59:22;;;;;;;13.68;9.35;;;;;;;19.89;44.21;99487.22;5074386;28;20081;-83
2021/09/17 04:01:48;;;;;;;10.63;9.65;;;;;;;19.32;44.44;99406.84;5074459;28;20025;-84
2021/09/17 04:04:13;;;;;;;11.40;10.20;;;;;;;19.28;44.64;99389.59;5074236;28;20099;-83
2021/09/17 04:06:42;;;;;;;12.55;9.38;;;;;;;20.13;44.42;99504.03;5074135;28;20485;-83
2021/09/17 04:09:07;;;;;;;14.02;10.00;;;;;;;20.21;44.56;99511.69;5074225;28;20024;-83
2021/09/17 04:11:33;;;;;;;13.05;9.63;;;;;;;19.61;44.45;99414.91;5074475;28;20016;-83
2021/09/17 04:13:58;;;;;;;12.20;9.27;;;;;;;20.00;44.47;99462.22;5074478;28;20028;-83
2021/09/17 04:16:23;;;;;;;12.15;10.20;;;;;;;19.99;44.54;99444.53;5074228;28;20028;-83
2021/09/17 04:18:49;;;;;;;12.85;10.52;;;;;;;20.12;44.91;99480.16;5072932;28;20527;-83
2021/09/17 04:21:14;;;;;;;11.68;10.32;;;;;;;20.22;45.51;99472.28;5073926;28;20103;-83
2021/09/17 04:23:40;;;;;;;12.50;10.85;;;;;;;20.39;45.64;99496.44;5074170;28;20013;-77
2021/09/17 04:26:05;;;;;;;13.85;11.15;;;;;;;20.37;46.04;99479.75;5072838;28;20419;-77
2021/09/17 04:28:30;;;;;;;13.32;11.18;;;;;;;20.05;46.24;99433.91;5073976;28;20024;-77
2021/09/17 04:30:56;;;;;;;14.48;11.32;;;;;;;20.30;46.28;99477.25;5074010;28;20028;-77
2021/09/17 04:33:21;;;;;;;15.60;12.70;;;;;;;20.27;46.35;99483.91;5074115;28;20596;-77
2021/09/17 04:35:47;;;;;;;13.98;11.27;;;;;;;20.23;46.41;99463.19;5073959;28;20021;-77
2021/09/17 04:38:14;;;;;;;16.58;12.10;;;;;;;19.93;46.63;99397.25;5073302;28;20485;-77
2021/09/17 04:40:40;;;;;;;14.63;11.38;;;;;;;20.16;47.06;99444.56;5073478;28;20051;-77
2021/09/17 04:43:06;;;;;;;23.65;13.90;;;;;;;20.20;47.11;99456.44;5072389;28;20158;-77
2021/09/17 04:45:31;;;;;;;20.83;13.02;;;;;;;20.53;47.44;99503.94;5072597;28;20100;-77
2021/09/17 04:47:56;;;;;;;16.80;13.00;;;;;;;20.53;47.51;99500.44;5073778;28;20031;-77
2021/09/17 04:50:22;;;;;;;14.85;13.07;;;;;;;20.60;47.58;99498.41;5073624;28;20017;-77
2021/09/17 04:52:48;;;;;;;18.83;12.98;;;;;;;20.20;46.82;99432.31;5072073;28;20047;-76
2021/09/17 04:55:14;;;;;;;18.05;11.48;;;;;;;20.37;46.00;99471.72;5073639;28;20038;-77
2021/09/17 04:57:39;;;;;;;16.88;12.45;;;;;;;20.54;45.85;99518.97;5072144;28;20497;-76
2021/09/17 05:00:06;;;;;;;15.82;11.80;;;;;;;20.45;45.98;99539.22;5073330;28;20512;-77
2021/09/17 05:02:33;;;;;;;19.92;12.90;;;;;;;19.98;46.37;99452.81;5071816;28;20028;-77
2021/09/17 05:04:58;;;;;;;17.80;13.65;;;;;;;20.41;46.50;99518.47;5073364;28;20027;-77
2021/09/17 05:07:23;;;;;;;17.02;13.05;;;;;;;20.26;46.94;99498.38;5071961;28;20369;-77
2021/09/17 05:09:49;;;;;;;16.73;13.38;;;;;;;20.29;46.96;99494.38;5073336;28;20119;-77
2021/09/17 05:12:14;;;;;;;17.33;12.77;;;;;;;20.48;47.12;99500.34;5073289;28;20077;-77
2021/09/17 05:14:40;;;;;;;18.90;13.75;;;;;;;20.30;47.34;99463.84;5073148;28;20028;-77
2021/09/17 05:17:05;;;;;;;17.50;12.82;;;;;;;20.44;47.74;99492.00;5072922;28;20043;-77
2021/09/17 05:19:30;;;;;;;21.48;14.07;;;;;;;20.04;47.51;99421.56;5072977;28;20027;-77
2021/09/17 05:21:56;;;;;;;18.67;15.07;;;;;;;20.68;48.09;99514.09;5073026;28;20054;-77
2021/09/17 05:24:23;;;;;;;18.15;13.98;;;;;;;20.39;47.88;99473.13;5072904;28;20052;-77
2021/09/17 05:26:49;;;;;;;19.13;14.63;;;;;;;20.79;47.83;99523.94;5072916;28;20134;-78
2021/09/17 05:29:15;;;;;;;22.38;15.43;;;;;;;20.97;47.75;99540.84;5071544;28;20050;-77
2021/09/17 05:31:41;;;;;;;19.80;14.43;;;;;;;21.02;47.98;99533.69;5072815;28;20520;-77
2021/09/17 05:34:07;;;;;;;22.17;14.15;;;;;;;20.57;47.99;99451.44;5072862;28;20095;-77
2021/09/17 05:36:32;;;;;;;18.58;14.77;;;;;;;20.79;48.06;99472.94;5072707;28;20016;-76
2021/09/17 05:38:58;;;;;;;19.60;15.82;;;;;;;20.90;48.15;99480.09;5072716;28;20024;-77
2021/09/17 05:41:23;;;;;;;20.42;14.13;;;;;;;21.22;48.34;99517.06;5072712;28;20493;-77
2021/09/17 05:43:50;;;;;;;19.00;14.85;;;;;;;21.30;48.60;99521.22;5072842;28;20511;-77
2021/09/17 05:46:15;;;;;;;17.58;13.27;;;;;;;21.31;48.70;99506.72;5072888;28;20055;-78
2021/09/17 05:48:41;;;;;;;19.92;15.00;;;;;;;21.24;48.95;99480.06;5072459;28;20028;-77
2021/09/17 05:51:06;;;;;;;18.92;13.70;;;;;;;21.30;49.24;99492.50;5074795;28;20023;-77
2021/09/17 05:53:32;;;;;;;19.20;14.55;;;;;;;21.48;49.26;99515.53;5091827;28;20055;-76
2021/09/17 05:55:57;;;;;;;20.92;14.85;;;;;;;21.30;49.14;99470.19;5091306;28;20032;-77
2021/09/17 05:58:27;;;;;;;16.35;14.18;;;;;;;21.49;48.99;99484.94;5092274;28;20020;-76
2021/09/17 06:00:53;;;;;;;18.15;14.90;;;;;;;21.73;48.97;99520.44;5091494;28;20508;-78
2021/09/17 06:03:18;;;;;;;19.17;14.43;;;;;;;21.74;48.86;99522.88;5091069;28;20030;-77
2021/09/17 06:05:44;;;;;;;21.52;14.48;;;;;;;21.42;48.88;99470.88;5092115;28;20096;-77
2021/09/17 06:08:09;;;;;;;18.55;14.15;;;;;;;21.42;49.03;99460.13;5091780;28;20024;-76
2021/09/17 06:10:34;;;;;;;16.27;13.27;;;;;;;21.90;48.95;99518.47;5092071;28;20015;-76
2021/09/17 06:13:00;;;;;;;26.38;20.00;;;;;;;22.01;48.76;99514.03;5090653;28;20028;-76
2021/09/17 06:15:25;;;;;;;18.45;16.48;;;;;;;22.10;48.85;99515.22;5091160;28;20138;-75
2021/09/17 06:17:51;;;;;;;26.70;22.42;;;;;;;22.00;48.65;99480.13;5091310;28;20118;-76
2021/09/17 06:20:16;;;;;;;17.83;13.93;;;;;;;21.91;48.69;99469.03;5091844;28;20020;-77
2021/09/17 06:22:45;;;;;;;17.60;13.55;;;;;;;21.62;48.20;99405.84;5091962;28;20077;-77
2021/09/17 06:25:14;;;;;;;21.75;18.75;;;;;;;21.90;48.05;99448.59;5092251;28;20088;-83
2021/09/17 06:27:40;;;;;;;17.25;13.80;;;;;;;22.16;47.96;99471.97;5091013;28;20028;-83
2021/09/17 06:30:06;;;;;;;13.55;12.10;;;;;;;22.11;48.04;99463.88;5085015;28;20023;-81
2021/09/17 06:32:31;;;;;;;14.82;13.20;;;;;;;22.47;47.94;99518.00;5085543;28;20028;-82
2021/09/17 06:34:58;;;;;;;18.50;13.00;;;;;;;22.03;47.92;99442.81;5074808;28;20516;-83
2021/09/17 06:37:23;;;;;;;18.10;13.63;;;;;;;22.55;47.59;99527.47;5076823;28;20039;-83
2021/09/17 06:39:49;;;;;;;20.75;14.05;;;;;;;22.59;47.50;99532.09;5087513;28;20032;-83
2021/09/17 06:42:14;;;;;;;16.15;13.80;;;;;;;22.33;47.46;99484.53;5086466;28;20027;-83
2021/09/17 06:44:39;;;;;;;17.90;13.75;;;;;;;22.46;47.26;99502.94;5091201;28;20111;-82
2021/09/17 06:47:05;;;;;;;14.82;12.80;;;;;;;22.22;47.37;99454.00;5083890;28;20028;-83
2021/09/17 06:49:30;;;;;;;21.42;13.20;;;;;;;22.72;47.21;99531.66;5085797;28;20019;-83
2021/09/17 06:51:56;;;;;;;17.00;13.68;;;;;;;22.69;47.28;99524.09;5089439;28;20419;-83
2021/09/17 06:54:21;;;;;;;16.83;13.23;;;;;;;22.36;47.04;99452.53;5081908;28;20023;-81
2021/09/17 06:56:46;;;;;;;17.27;14.05;;;;;;;22.62;47.19;99487.72;5089538;28;20032;-82
2021/09/17 06:59:12;;;;;;;15.70;13.75;;;;;;;22.68;47.04;99470.53;5090793;28;20020;-83
2021/09/17 07:01:37;;;;;;;15.52;12.73;;;;;;;22.72;46.81;99477.00;5089062;28;20027;-82
2021/09/17 07:04:03;;;;;;;15.57;13.98;;;;;;;23.09;46.58;99533.59;5090379;28;20012;-82
2021/09/17 07:06:32;;;;;;;16.92;13.02;;;;;;;22.91;46.31;99497.09;5083557;28;20381;-83
2021/09/17 07:08:58;;;;;;;17.92;12.85;;;;;;;23.30;46.14;99523.75;5080535;28;20084;-83
2021/09/17 07:11:24;;;;;;;14.48;12.07;;;;;;;23.28;45.85;99490.88;5089401;28;20492;-82
2021/09/17 07:13:49;;;;;;;14.27;12.48;;;;;;;23.65;45.40;99529.31;5075996;28;20020;-82
2021/09/17 07:16:15;;;;;;;20.65;13.88;;;;;;;23.27;45.44;99443.44;5090074;28;20069;-83
2021/09/17 07:18:40;;;;;;;16.23;12.63;;;;;;;23.90;44.74;99515.13;5084913;28;20061;-81
2021/09/17 07:21:06;;;;;;;16.45;12.10;;;;;;;24.04;44.57;99510.03;5090502;28;20107;-81
2021/09/17 07:23:31;;;;;;;17.05;13.40;;;;;;;24.16;44.55;99512.47;5086985;28;20417;-74
2021/09/17 07:25:57;;;;;;;18.75;13.18;;;;;;;23.99;44.44;99488.44;5090295;28;20016;-77
2021/09/17 07:28:22;;;;;;;13.73;11.95;;;;;;;23.82;44.24;99450.13;5076538;28;20035;-75
2021/09/17 07:30:48;;;;;;;18.42;13.40;;;;;;;24.22;44.25;99506.81;5081221;28;20028;-75
2021/09/17 07:33:14;;;;;;;22.98;17.05;;;;;;;24.31;44.08;99509.84;5071118;28;20032;-77
2021/09/17 07:35:39;;;;;;;17.70;13.90;;;;;;;24.24;43.83;99495.75;5087046;28;20060;-76
2021/09/17 07:38:05;;;;;;;16.83;14.55;;;;;;;23.93;44.11;99439.09;5089382;28;20531;-75
2021/09/17 07:40:30;;;;;;;14.20;12.80;;;;;;;24.38;43.91;99489.59;5089348;28;20055;-77
2021/09/17 07:42:56;;;;;;;14.10;12.55;;;;;;;24.73;43.52;99500.69;5073433;28;20424;-77
2021/09/17 07:45:24;;;;;;;16.80;13.05;;;;;;;24.53;43.15;99459.13;5070660;28;20765;-76
2021/09/17 07:47:54;;;;;;;17.27;13.68;;;;;;;24.74;43.17;99470.69;5073816;28;20020;-76
2021/09/17 07:50:20;;;;;;;17.67;12.48;;;;;;;24.73;42.78;99469.09;5083129;28;20016;-74
2021/09/17 07:52:45;;;;;;;14.90;11.65;;;;;;;24.61;42.71;99415.38;5082848;28;20492;-76
2021/09/17 07:55:12;;;;;;;12.57;10.48;;;;;;;24.87;42.40;99442.31;5087991;28;20489;-76
2021/09/17 07:57:37;;;;;;;12.93;10.30;;;;;;;25.22;41.90;99490.06;5089539;28;20024;-76
2021/09/17 08:00:05;;;;;;;13.63;11.05;;;;;;;25.24;42.26;99479.78;5088735;28;20024;-76
2021/09/17 08:02:30;;;;;;;21.65;17.88;;;;;;;25.19;42.35;99475.22;5090425;28;20047;-75
2021/09/17 08:04:55;;;;;;;16.52;12.75;;;;;;;25.18;41.97;99459.28;5089342;28;20120;-77
2021/09/17 08:07:21;;;;;;;12.90;10.10;;;;;;;25.41;42.23;99495.69;5089780;28;20046;-74
2021/09/17 08:09:46;;;;;;;13.75;10.88;;;;;;;25.00;42.01;99442.56;5081083;28;20024;-81
2021/09/17 08:12:12;;;;;;;10.70;9.57;;;;;;;25.22;41.64;99484.66;5090002;28;20028;-82
2021/09/17 08:14:37;;;;;;;13.73;10.38;;;;;;;24.88;41.45;99416.94;5093808;28;20032;-82
2021/09/17 08:17:03;;;;;;;17.80;14.95;;;;;;;25.10;41.81;99443.63;5093729;28;20032;-80
2021/09/17 08:19:28;;;;;;;13.95;12.48;;;;;;;25.27;41.54;99465.75;5093619;28;20066;-83
2021/09/17 08:21:53;;;;;;;11.05;9.70;;;;;;;25.11;41.34;99429.84;5093424;28;20496;-81
2021/09/17 08:24:19;;;;;;;13.00;9.68;;;;;;;25.17;41.24;99436.03;5092186;28;20028;-78
2021/09/17 08:26:47;;;;;;;10.88;9.82;;;;;;;25.41;41.25;99469.47;5084981;28;20020;-76
2021/09/17 08:29:13;;;;;;;12.60;11.27;;;;;;;24.94;40.73;99386.13;5087004;28;20039;-76
2021/09/17 08:31:40;;;;;;;12.10;10.90;;;;;;;25.48;40.91;99472.69;5079917;28;20448;-77
2021/09/17 08:34:07;;;;;;;13.25;10.15;;;;;;;25.53;40.97;99455.63;5092350;28;20117;-74
2021/09/17 08:36:33;;;;;;;10.90;9.80;;;;;;;25.39;40.90;99436.50;5091619;28;20084;-76
2021/09/17 08:38:59;;;;;;;11.95;10.18;;;;;;;25.36;40.74;99418.16;5088891;28;20552;-76
2021/09/17 08:41:29;;;;;;;12.05;10.30;;;;;;;25.26;40.54;99412.75;5092586;28;20020;-75
2021/09/17 08:43:54;;;;;;;12.65;11.15;;;;;;;25.29;40.14;99410.34;5089194;28;20539;-76
2021/09/17 08:46:20;;;;;;;20.38;18.30;;;;;;;25.47;40.19;99441.34;5089215;28;20169;-75
2021/09/17 08:48:49;;;;;;;13.55;11.95;;;;;;;24.78;40.14;99325.94;5093448;28;20488;-74
2021/09/17 08:51:15;;;;;;;14.95;10.38;;;;;;;25.29;40.29;99399.53;5091602;28;20031;-76
2021/09/17 08:53:40;;;;;;;14.30;12.20;;;;;;;25.40;40.42;99396.78;5092114;28;20020;-75
2021/09/17 08:56:07;;;;;;;20.67;18.67;;;;;;;25.62;40.43;99419.63;5090792;28;20024;-74
2021/09/17 08:58:34;;;;;;;22.85;20.45;;;;;;;25.73;40.56;99412.28;5092134;28;20032;-76
2021/09/17 09:00:59;;;;;;;20.67;18.45;;;;;;;25.59;40.40;99376.09;5093142;28;20103;-76
2021/09/17 09:03:29;;;;;;;15.48;13.13;;;;;;;25.94;40.04;99427.28;5092664;28;20472;-74
2021/09/17 09:05:54;;;;;;;15.23;13.63;;;;;;;25.98;40.11;99425.63;5092728;28;20016;-77
2021/09/17 09:08:26;;;;;;;15.10;10.57;;;;;;;25.67;39.43;99383.66;5086393;28;20054;-73
2021/09/17 09:10:52;;;;;;;11.88;9.98;;;;;;;25.94;39.47;99415.66;5081965;28;20523;-75
2021/09/17 09:13:18;;;;;;;11.48;10.38;;;;;;;25.89;39.58;99400.25;5072579;28;20028;-75
2021/09/17 09:15:43;;;;;;;15.35;13.75;;;;;;;25.83;39.42;99377.03;5086219;28;20082;-76
2021/09/17 09:18:12;;;;;;;18.38;12.48;;;;;;;25.83;38.99;99351.91;5086614;28;20027;-75
2021/09/17 09:20:43;;;;;;;16.75;13.27;;;;;;;26.53;38.31;99404.63;5091223;28;20361;-77
2021/09/17 09:23:08;;;;;;;14.70;13.13;;;;;;;26.79;38.33;99405.19;5089432;28;20102;-74
2021/09/17 09:25:46;;;;;;;15.90;11.23;;;;;;;27.08;37.62;99391.59;5082168;28;20107;-76
2021/09/17 09:28:14;;;;;;;14.40;11.25;;;;;;;27.38;36.97;99397.72;5092393;28;20035;-76
2021/09/17 09:30:39;;;;;;;11.95;10.90;;;;;;;27.56;35.92;99363.59;5091274;28;20027;-76
2021/09/17 09:33:27;;;;;;;12.15;10.88;;;;;;;27.99;35.15;99373.25;5091222;28;20020;-77
2021/09/17 09:36:07;;;;;;;15.68;14.02;;;;;;;27.96;35.32;99371.13;5089302;28;20020;-75
2021/09/17 09:38:44;;;;;;;19.83;16.85;;;;;;;28.33;35.02;99361.31;5080016;28;20020;-76
2021/09/17 09:41:17;;;;;;;12.52;9.77;;;;;;;27.88;34.05;99257.03;5070905;28;20021;-76
2021/09/17 09:44:00;;;;;;;12.93;11.05;;;;;;;28.59;33.72;99310.84;5092601;28;20031;-75
2021/09/17 09:46:36;;;;;;;10.75;9.57;;;;;;;28.86;33.16;99328.25;5085820;28;20039;-76
2021/09/17 09:49:22;;;;;;;12.82;11.48;;;;;;;28.98;32.75;99299.44;5081038;28;20024;-76
2021/09/17 09:51:56;;;;;;;10.98;9.35;;;;;;;29.15;32.40;99292.59;5090073;28;20028;-77
2021/09/17 09:54:23;;;;;;;12.45;9.70;;;;;;;29.59;31.84;99324.50;5076125;28;20424;-76
2021/09/17 09:56:51;;;;;;;12.23;9.23;;;;;;;29.96;31.85;99335.03;5073249;28;20107;-76
2021/09/17 09:59:20;;;;;;;9.48;8.50;;;;;;;30.13;31.90;99337.06;5080588;28;20024;-73
2021/09/17 10:01:46;;;;;;;10.18;9.10;;;;;;;29.87;31.33;99276.19;5092146;28;20027;-76
2021/09/17 10:04:13;;;;;;;10.18;9.05;;;;;;;30.43;31.29;99335.44;5091619;28;20024;-75
2021/09/17 10:06:39;;;;;;;14.57;9.27;;;;;;;30.50;30.47;99321.41;5081252;28;20085;-75
2021/09/17 10:09:07;;;;;;;10.38;8.55;;;;;;;30.59;30.54;99320.34;5080580;28;20024;-76
2021/09/17 10:11:34;;;;;;;10.40;9.43;;;;;;;30.40;30.37;99267.97;5091648;28;20024;-76
2021/09/17 10:14:03;;;;;;;12.07;9.88;;;;;;;30.67;29.78;99281.41;5092146;28;20024;-75
2021/09/17 10:16:31;;;;;;;10.98;9.55;;;;;;;30.75;29.62;99284.47;5085853;28;20439;-74
2021/09/17 10:18:57;;;;;;;13.13;9.63;;;;;;;31.13;29.76;99311.94;5071408;28;20108;-74
2021/09/17 10:21:48;;;;;;;11.65;10.20;;;;;;;31.41;29.78;99307.84;5074226;28;20205;-74
2021/09/17 10:24:26;;;;;;;24.75;15.38;;;;;;;31.60;29.06;99302.84;5085318;28;20047;-82
2021/09/17 10:27:01;;;;;;;16.40;14.75;;;;;;;31.69;29.15;99302.84;5090004;28;20465;-83
2021/09/17 10:29:41;;;;;;;12.73;11.40;;;;;;;31.79;28.17;99312.66;5088938;28;20019;-80
2021/09/17 10:32:26;;;;;;;10.95;9.65;;;;;;;31.91;28.21;99297.22;5091550;28;20036;-83
2021/09/17 10:35:12;;;;;;;13.00;11.18;;;;;;;31.97;28.17;99275.22;5090167;28;20024;-83
2021/09/17 10:38:03;;;;;;;11.18;10.07;;;;;;;32.30;28.21;99289.09;5091155;28;20092;-81
2021/09/17 10:40:57;;;;;;;18.20;16.48;;;;;;;32.38;28.52;99269.13;5091058;28;20076;-82
2021/09/17 10:43:40;;;;;;;16.55;14.25;;;;;;;32.00;27.83;99168.06;5082839;28;20092;-82
2021/09/17 10:46:10;;;;;;;14.52;12.27;;;;;;;32.75;27.37;99264.75;5091509;28;20050;-81
2021/09/17 10:48:42;;;;;;;11.70;10.50;;;;;;;32.92;27.03;99261.94;5089684;28;20038;-83
2021/09/17 10:51:08;;;;;;;10.85;9.75;;;;;;;32.55;27.31;99190.56;5091372;28;20557;-82
2021/09/17 10:53:39;;;;;;;10.52;9.45;;;;;;;33.13;26.61;99251.00;5091265;28;20032;-82
2021/09/17 10:56:08;;;;;;;15.65;14.05;;;;;;;33.07;26.71;99252.34;5091364;28;20059;-82
2021/09/17 10:58:33;;;;;;;11.30;9.48;;;;;;;32.95;26.58;99231.19;5091722;28;20035;-82
2021/09/17 11:01:03;;;;;;;10.48;8.23;;;;;;;33.18;26.22;99239.84;5091421;28;20024;-82
2021/09/17 11:03:41;;;;;;;11.73;9.60;;;;;;;33.39;25.73;99243.38;5091088;28;20024;-82
2021/09/17 11:06:32;;;;;;;11.00;8.50;;;;;;;33.50;25.87;99243.00;5088858;28;20034;-82
2021/09/17 11:09:04;;;;;;;10.63;8.88;;;;;;;33.21;25.98;99175.44;5074817;28;20033;-81
2021/09/17 11:11:42;;;;;;;8.55;6.95;;;;;;;33.67;25.49;99234.59;5071811;28;20029;-80
2021/09/17 11:14:19;;;;;;;12.45;9.90;;;;;;;33.59;25.51;99208.09;5073558;28;20036;-80
2021/09/17 11:16:49;;;;;;;13.85;9.82;;;;;;;33.87;25.63;99231.00;5087568;28;20427;-83
2021/09/17 11:19:17;;;;;;;8.97;8.03;;;;;;;33.90;25.24;99229.53;5083463;28;20025;-83
2021/09/17 11:21:49;;;;;;;10.40;8.63;;;;;;;33.68;25.09;99190.44;5069526;28;20032;-82